sensor_id;sensor_type;location;lat;lon;timestamp;temperature;humidity
7684;DHT22;3884;48.616;12.872;2023-05-07T00:02:08;11.00;99.90
7684;DHT22;3884;48.616;12.872;2023-05-07T00:04:35;11.20;99.90
7684;DHT22;3884;48.616;12.872;2023-05-07T00:07:04;11.20;99.90
7684;DHT22;3884;48.616;12.872;2023-05-07T00:09:31;11.30;99.90
7684;DHT22;3884;48.616;12.872;2023-05-07T00:11:58;11.40;99.90
7684;DHT22;3884;48.616;12.872;2023-05-07T00:14:25;11.40;19.20
7684;DHT22;3884;48.616;12.872;2023-05-07T00:16:52;11.40;1.00
7684;DHT22;3884;48.616;12.872;2023-05-07T00:19:20;11.40;1.00
7684;DHT22;3884;48.616;12.872;2023-05-07T00:21:47;11.40;1.00
7684;DHT22;3884;48.616;12.872;2023-05-07T00:24:14;11.30;1.00
7684;DHT22;3884;48.616;12.872;2023-05-07T00:26:41;11.00;1.00
7684;DHT22;3884;48.616;12.872;2023-05-07T00:29:08;10.80;1.00
7684;DHT22;3884;48.616;12.872;2023-05-07T00:31:35;10.90;1.00
7684;DHT22;3884;48.616;12.872;2023-05-07T00:34:02;11.00;1.00
7684;DHT22;3884;48.616;12.872;2023-05-07T00:36:30;11.10;1.00
7684;DHT22;3884;48.616;12.872;2023-05-07T00:39:00;11.30;99.90
7684;DHT22;3884;48.616;12.872;2023-05-07T00:41:28;11.10;99.90
7684;DHT22;3884;48.616;12.872;2023-05-07T00:43:56;10.90;99.90
7684;DHT22;3884;48.616;12.872;2023-05-07T00:46:23;11.10;99.90
7684;DHT22;3884;48.616;12.872;2023-05-07T00:48:51;11.00;99.90
7684;DHT22;3884;48.616;12.872;2023-05-07T00:51:19;11.00;99.90
7684;DHT22;3884;48.616;12.872;2023-05-07T00:53:47;11.00;99.90
7684;DHT22;3884;48.616;12.872;2023-05-07T00:56:14;11.00;99.90
7684;DHT22;3884;48.616;12.872;2023-05-07T00:58:42;11.10;1.00
7684;DHT22;3884;48.616;12.872;2023-05-07T01:01:09;11.00;1.00
7684;DHT22;3884;48.616;12.872;2023-05-07T01:03:36;10.90;99.90
7684;DHT22;3884;48.616;12.872;2023-05-07T01:06:03;11.00;60.10
7684;DHT22;3884;48.616;12.872;2023-05-07T01:08:32;10.90;1.00
7684;DHT22;3884;48.616;12.872;2023-05-07T01:11:02;10.80;99.90
7684;DHT22;3884;48.616;12.872;2023-05-07T01:13:29;10.70;1.00
7684;DHT22;3884;48.616;12.872;2023-05-07T01:15:57;10.50;99.90
7684;DHT22;3884;48.616;12.872;2023-05-07T01:18:24;10.50;99.90
7684;DHT22;3884;48.616;12.872;2023-05-07T01:20:51;10.50;1.00
7684;DHT22;3884;48.616;12.872;2023-05-07T01:23:20;10.60;1.00
7684;DHT22;3884;48.616;12.872;2023-05-07T01:25:51;10.40;1.00
7684;DHT22;3884;48.616;12.872;2023-05-07T01:28:20;10.40;38.50
7684;DHT22;3884;48.616;12.872;2023-05-07T01:30:53;10.30;99.90
7684;DHT22;3884;48.616;12.872;2023-05-07T01:33:21;10.50;99.90
7684;DHT22;3884;48.616;12.872;2023-05-07T01:35:51;10.50;99.90
7684;DHT22;3884;48.616;12.872;2023-05-07T01:38:21;10.50;99.90
7684;DHT22;3884;48.616;12.872;2023-05-07T01:40:49;10.40;99.90
7684;DHT22;3884;48.616;12.872;2023-05-07T01:43:17;10.60;99.90
7684;DHT22;3884;48.616;12.872;2023-05-07T01:45:44;10.50;99.90
7684;DHT22;3884;48.616;12.872;2023-05-07T01:48:12;10.50;94.50
7684;DHT22;3884;48.616;12.872;2023-05-07T01:50:41;10.60;99.90
7684;DHT22;3884;48.616;12.872;2023-05-07T01:53:09;10.40;99.90
7684;DHT22;3884;48.616;12.872;2023-05-07T01:55:38;10.40;99.90
7684;DHT22;3884;48.616;12.872;2023-05-07T01:58:05;10.40;99.90
7684;DHT22;3884;48.616;12.872;2023-05-07T02:00:32;10.40;99.90
7684;DHT22;3884;48.616;12.872;2023-05-07T02:02:59;10.60;99.90
7684;DHT22;3884;48.616;12.872;2023-05-07T02:05:35;10.40;99.90
7684;DHT22;3884;48.616;12.872;2023-05-07T02:08:08;10.60;99.90
7684;DHT22;3884;48.616;12.872;2023-05-07T02:10:36;10.40;22.70
7684;DHT22;3884;48.616;12.872;2023-05-07T02:13:06;10.40;1.00
7684;DHT22;3884;48.616;12.872;2023-05-07T02:15:33;10.40;1.00
7684;DHT22;3884;48.616;12.872;2023-05-07T02:18:03;10.40;1.00
7684;DHT22;3884;48.616;12.872;2023-05-07T02:20:30;10.30;1.00
7684;DHT22;3884;48.616;12.872;2023-05-07T02:22:58;10.30;1.00
7684;DHT22;3884;48.616;12.872;2023-05-07T02:25:26;10.50;1.00
7684;DHT22;3884;48.616;12.872;2023-05-07T02:27:53;10.40;1.00
7684;DHT22;3884;48.616;12.872;2023-05-07T02:30:26;10.50;1.00
7684;DHT22;3884;48.616;12.872;2023-05-07T02:32:56;10.50;1.00
7684;DHT22;3884;48.616;12.872;2023-05-07T02:35:24;10.30;1.00
7684;DHT22;3884;48.616;12.872;2023-05-07T02:37:51;10.40;1.00
7684;DHT22;3884;48.616;12.872;2023-05-07T02:40:18;10.40;1.00
7684;DHT22;3884;48.616;12.872;2023-05-07T02:42:46;10.30;68.70
7684;DHT22;3884;48.616;12.872;2023-05-07T02:45:13;10.40;99.90
7684;DHT22;3884;48.616;12.872;2023-05-07T02:47:42;10.40;46.90
7684;DHT22;3884;48.616;12.872;2023-05-07T02:50:10;10.30;1.00
7684;DHT22;3884;48.616;12.872;2023-05-07T02:52:37;10.10;1.00
7684;DHT22;3884;48.616;12.872;2023-05-07T02:55:05;10.10;70.40
7684;DHT22;3884;48.616;12.872;2023-05-07T02:57:32;10.10;99.90
7684;DHT22;3884;48.616;12.872;2023-05-07T03:00:06;10.10;99.90
7684;DHT22;3884;48.616;12.872;2023-05-07T03:02:36;10.20;99.90
7684;DHT22;3884;48.616;12.872;2023-05-07T03:05:06;10.20;90.50
7684;DHT22;3884;48.616;12.872;2023-05-07T03:07:33;10.00;99.90
7684;DHT22;3884;48.616;12.872;2023-05-07T03:10:00;9.80;99.90
7684;DHT22;3884;48.616;12.872;2023-05-07T03:12:27;9.90;99.90
7684;DHT22;3884;48.616;12.872;2023-05-07T03:14:54;9.90;99.90
7684;DHT22;3884;48.616;12.872;2023-05-07T03:17:21;10.10;99.90
7684;DHT22;3884;48.616;12.872;2023-05-07T03:19:48;9.90;99.90
7684;DHT22;3884;48.616;12.872;2023-05-07T03:22:17;9.90;99.90
7684;DHT22;3884;48.616;12.872;2023-05-07T03:24:44;10.00;99.90
7684;DHT22;3884;48.616;12.872;2023-05-07T03:27:10;10.10;99.90
7684;DHT22;3884;48.616;12.872;2023-05-07T03:29:37;10.20;51.30
7684;DHT22;3884;48.616;12.872;2023-05-07T03:32:04;10.20;1.00
7684;DHT22;3884;48.616;12.872;2023-05-07T03:34:32;10.10;1.00
7684;DHT22;3884;48.616;12.872;2023-05-07T03:36:59;10.10;85.60
7684;DHT22;3884;48.616;12.872;2023-05-07T03:39:27;10.10;92.80
7684;DHT22;3884;48.616;12.872;2023-05-07T03:41:54;10.10;79.80
7684;DHT22;3884;48.616;12.872;2023-05-07T03:44:22;10.00;99.90
7684;DHT22;3884;48.616;12.872;2023-05-07T03:46:50;9.90;99.90
7684;DHT22;3884;48.616;12.872;2023-05-07T03:49:17;9.90;99.90
7684;DHT22;3884;48.616;12.872;2023-05-07T03:51:44;9.90;99.90
7684;DHT22;3884;48.616;12.872;2023-05-07T03:54:11;9.90;99.90
7684;DHT22;3884;48.616;12.872;2023-05-07T03:56:43;9.80;99.90
7684;DHT22;3884;48.616;12.872;2023-05-07T03:59:11;9.80;99.90
7684;DHT22;3884;48.616;12.872;2023-05-07T04:01:39;9.80;99.90
7684;DHT22;3884;48.616;12.872;2023-05-07T04:04:07;10.10;99.90
7684;DHT22;3884;48.616;12.872;2023-05-07T04:06:36;10.10;99.90
7684;DHT22;3884;48.616;12.872;2023-05-07T04:09:03;10.20;99.90
7684;DHT22;3884;48.616;12.872;2023-05-07T04:11:30;10.20;99.90
7684;DHT22;3884;48.616;12.872;2023-05-07T04:13:59;10.20;99.90
7684;DHT22;3884;48.616;12.872;2023-05-07T04:16:26;10.20;99.90
7684;DHT22;3884;48.616;12.872;2023-05-07T04:18:53;10.30;99.90
7684;DHT22;3884;48.616;12.872;2023-05-07T04:21:20;10.30;99.90
7684;DHT22;3884;48.616;12.872;2023-05-07T04:23:49;10.40;99.90
7684;DHT22;3884;48.616;12.872;2023-05-07T04:26:16;10.60;99.90
7684;DHT22;3884;48.616;12.872;2023-05-07T04:28:45;10.30;99.90
7684;DHT22;3884;48.616;12.872;2023-05-07T04:31:14;10.40;99.90
7684;DHT22;3884;48.616;12.872;2023-05-07T04:33:41;10.40;99.90
7684;DHT22;3884;48.616;12.872;2023-05-07T04:36:12;10.50;99.90
7684;DHT22;3884;48.616;12.872;2023-05-07T04:38:48;10.40;99.90
7684;DHT22;3884;48.616;12.872;2023-05-07T04:41:17;10.50;99.90
7684;DHT22;3884;48.616;12.872;2023-05-07T04:43:45;10.60;99.90
7684;DHT22;3884;48.616;12.872;2023-05-07T04:46:15;10.60;99.90
7684;DHT22;3884;48.616;12.872;2023-05-07T04:48:44;10.90;99.90
7684;DHT22;3884;48.616;12.872;2023-05-07T04:51:11;10.90;99.90
7684;DHT22;3884;48.616;12.872;2023-05-07T04:53:39;10.80;99.90
7684;DHT22;3884;48.616;12.872;2023-05-07T04:56:06;10.90;99.90
7684;DHT22;3884;48.616;12.872;2023-05-07T04:58:39;10.90;99.90
7684;DHT22;3884;48.616;12.872;2023-05-07T05:01:07;11.10;99.90
7684;DHT22;3884;48.616;12.872;2023-05-07T05:03:35;11.20;99.90
7684;DHT22;3884;48.616;12.872;2023-05-07T05:06:02;11.20;99.90
7684;DHT22;3884;48.616;12.872;2023-05-07T05:08:32;11.30;99.90
7684;DHT22;3884;48.616;12.872;2023-05-07T05:11:01;11.50;99.90
7684;DHT22;3884;48.616;12.872;2023-05-07T05:13:30;11.50;99.90
7684;DHT22;3884;48.616;12.872;2023-05-07T05:15:58;11.60;99.90
7684;DHT22;3884;48.616;12.872;2023-05-07T05:18:27;11.60;99.90
7684;DHT22;3884;48.616;12.872;2023-05-07T05:20:56;11.60;99.90
7684;DHT22;3884;48.616;12.872;2023-05-07T05:23:23;11.80;99.90
7684;DHT22;3884;48.616;12.872;2023-05-07T05:25:50;11.90;99.90
7684;DHT22;3884;48.616;12.872;2023-05-07T05:28:22;12.00;99.90
7684;DHT22;3884;48.616;12.872;2023-05-07T05:30:49;12.30;99.90
7684;DHT22;3884;48.616;12.872;2023-05-07T05:33:17;12.50;99.90
7684;DHT22;3884;48.616;12.872;2023-05-07T05:35:44;12.60;99.90
7684;DHT22;3884;48.616;12.872;2023-05-07T05:38:13;12.90;23.90
7684;DHT22;3884;48.616;12.872;2023-05-07T05:40:41;12.80;21.80
7684;DHT22;3884;48.616;12.872;2023-05-07T05:43:08;12.90;57.50
7684;DHT22;3884;48.616;12.872;2023-05-07T05:45:37;13.10;1.00
7684;DHT22;3884;48.616;12.872;2023-05-07T05:48:05;13.10;1.00
7684;DHT22;3884;48.616;12.872;2023-05-07T05:50:32;13.20;99.90
7684;DHT22;3884;48.616;12.872;2023-05-07T05:53:01;13.40;99.90
7684;DHT22;3884;48.616;12.872;2023-05-07T05:55:30;13.40;1.00
7684;DHT22;3884;48.616;12.872;2023-05-07T05:57:58;13.50;99.90
7684;DHT22;3884;48.616;12.872;2023-05-07T06:00:25;13.60;1.00
7684;DHT22;3884;48.616;12.872;2023-05-07T06:03:01;13.70;99.90
7684;DHT22;3884;48.616;12.872;2023-05-07T06:05:28;13.80;99.90
7684;DHT22;3884;48.616;12.872;2023-05-07T06:07:56;13.90;99.90
7684;DHT22;3884;48.616;12.872;2023-05-07T06:10:24;14.00;1.00
7684;DHT22;3884;48.616;12.872;2023-05-07T06:12:53;14.20;1.00
7684;DHT22;3884;48.616;12.872;2023-05-07T06:15:20;14.20;99.90
7684;DHT22;3884;48.616;12.872;2023-05-07T06:17:48;14.30;1.00
7684;DHT22;3884;48.616;12.872;2023-05-07T06:20:16;14.50;1.00
7684;DHT22;3884;48.616;12.872;2023-05-07T06:22:43;14.60;1.00
7684;DHT22;3884;48.616;12.872;2023-05-07T06:25:11;14.70;99.90
7684;DHT22;3884;48.616;12.872;2023-05-07T06:27:39;15.00;1.00
7684;DHT22;3884;48.616;12.872;2023-05-07T06:30:08;14.90;99.90
7684;DHT22;3884;48.616;12.872;2023-05-07T06:32:36;14.90;1.00
7684;DHT22;3884;48.616;12.872;2023-05-07T06:35:04;15.00;99.90
7684;DHT22;3884;48.616;12.872;2023-05-07T06:37:34;15.20;1.00
7684;DHT22;3884;48.616;12.872;2023-05-07T06:40:06;15.30;93.30
7684;DHT22;3884;48.616;12.872;2023-05-07T06:42:36;15.40;1.00
7684;DHT22;3884;48.616;12.872;2023-05-07T06:45:25;15.60;1.00
7684;DHT22;3884;48.616;12.872;2023-05-07T06:47:54;15.80;1.00
7684;DHT22;3884;48.616;12.872;2023-05-07T06:50:22;15.80;99.90
7684;DHT22;3884;48.616;12.872;2023-05-07T06:52:50;16.10;99.90
7684;DHT22;3884;48.616;12.872;2023-05-07T06:55:17;16.10;99.90
7684;DHT22;3884;48.616;12.872;2023-05-07T06:57:45;16.10;99.90
7684;DHT22;3884;48.616;12.872;2023-05-07T07:00:14;16.20;99.90
7684;DHT22;3884;48.616;12.872;2023-05-07T07:02:48;16.20;99.40
7684;DHT22;3884;48.616;12.872;2023-05-07T07:05:19;16.20;99.90
7684;DHT22;3884;48.616;12.872;2023-05-07T07:07:46;16.40;99.90
7684;DHT22;3884;48.616;12.872;2023-05-07T07:10:18;16.70;99.90
7684;DHT22;3884;48.616;12.872;2023-05-07T07:12:45;16.70;50.60
7684;DHT22;3884;48.616;12.872;2023-05-07T07:15:13;16.50;1.00
7684;DHT22;3884;48.616;12.872;2023-05-07T07:17:40;16.60;1.70
7684;DHT22;3884;48.616;12.872;2023-05-07T07:20:10;16.70;1.00
7684;DHT22;3884;48.616;12.872;2023-05-07T07:22:38;16.90;1.00
7684;DHT22;3884;48.616;12.872;2023-05-07T07:25:06;16.90;1.00
7684;DHT22;3884;48.616;12.872;2023-05-07T07:27:33;17.10;1.00
7684;DHT22;3884;48.616;12.872;2023-05-07T07:30:00;17.30;1.00
7684;DHT22;3884;48.616;12.872;2023-05-07T07:32:30;17.40;1.00
7684;DHT22;3884;48.616;12.872;2023-05-07T07:34:58;17.70;1.00
7684;DHT22;3884;48.616;12.872;2023-05-07T07:37:28;17.70;1.00
7684;DHT22;3884;48.616;12.872;2023-05-07T07:39:56;17.90;1.00
7684;DHT22;3884;48.616;12.872;2023-05-07T07:42:23;18.00;1.00
7684;DHT22;3884;48.616;12.872;2023-05-07T07:44:50;17.90;1.00
7684;DHT22;3884;48.616;12.872;2023-05-07T07:47:21;18.20;1.00
7684;DHT22;3884;48.616;12.872;2023-05-07T07:49:50;18.10;1.00
7684;DHT22;3884;48.616;12.872;2023-05-07T07:52:18;18.00;1.00
7684;DHT22;3884;48.616;12.872;2023-05-07T07:54:47;18.10;1.00
7684;DHT22;3884;48.616;12.872;2023-05-07T07:57:14;18.10;1.00
7684;DHT22;3884;48.616;12.872;2023-05-07T07:59:41;18.10;1.00
7684;DHT22;3884;48.616;12.872;2023-05-07T08:02:10;17.90;1.00
7684;DHT22;3884;48.616;12.872;2023-05-07T08:04:37;17.90;1.00
7684;DHT22;3884;48.616;12.872;2023-05-07T08:07:06;17.80;1.00
7684;DHT22;3884;48.616;12.872;2023-05-07T08:09:37;17.90;1.00
7684;DHT22;3884;48.616;12.872;2023-05-07T08:12:06;18.20;1.00
7684;DHT22;3884;48.616;12.872;2023-05-07T08:14:34;18.20;1.00
7684;DHT22;3884;48.616;12.872;2023-05-07T08:17:03;18.50;1.00
7684;DHT22;3884;48.616;12.872;2023-05-07T08:19:31;18.60;99.90
7684;DHT22;3884;48.616;12.872;2023-05-07T08:21:59;18.60;99.90
7684;DHT22;3884;48.616;12.872;2023-05-07T08:24:27;18.70;99.90
7684;DHT22;3884;48.616;12.872;2023-05-07T08:26:54;19.00;99.90
7684;DHT22;3884;48.616;12.872;2023-05-07T08:29:23;19.30;99.90
7684;DHT22;3884;48.616;12.872;2023-05-07T08:31:50;19.40;99.90
7684;DHT22;3884;48.616;12.872;2023-05-07T08:34:17;19.50;99.90
7684;DHT22;3884;48.616;12.872;2023-05-07T08:36:46;19.50;99.90
7684;DHT22;3884;48.616;12.872;2023-05-07T08:39:16;19.20;99.90
7684;DHT22;3884;48.616;12.872;2023-05-07T08:41:45;19.40;99.90
7684;DHT22;3884;48.616;12.872;2023-05-07T08:44:13;19.50;99.90
7684;DHT22;3884;48.616;12.872;2023-05-07T08:46:45;19.60;99.90
7684;DHT22;3884;48.616;12.872;2023-05-07T08:49:15;19.40;99.90
7684;DHT22;3884;48.616;12.872;2023-05-07T08:51:44;19.40;99.90
7684;DHT22;3884;48.616;12.872;2023-05-07T08:54:15;19.90;99.90
7684;DHT22;3884;48.616;12.872;2023-05-07T08:56:43;19.80;99.90
7684;DHT22;3884;48.616;12.872;2023-05-07T08:59:11;20.10;99.60
7684;DHT22;3884;48.616;12.872;2023-05-07T09:01:38;20.10;99.90
7684;DHT22;3884;48.616;12.872;2023-05-07T09:04:07;20.10;75.10
7684;DHT22;3884;48.616;12.872;2023-05-07T09:06:36;20.00;99.90
7684;DHT22;3884;48.616;12.872;2023-05-07T09:09:04;20.50;99.90
7684;DHT22;3884;48.616;12.872;2023-05-07T09:11:32;20.50;17.80
7684;DHT22;3884;48.616;12.872;2023-05-07T09:14:00;20.40;44.90
7684;DHT22;3884;48.616;12.872;2023-05-07T09:16:32;20.10;27.20
7684;DHT22;3884;48.616;12.872;2023-05-07T09:19:00;20.40;17.50
7684;DHT22;3884;48.616;12.872;2023-05-07T09:21:29;20.50;43.10
7684;DHT22;3884;48.616;12.872;2023-05-07T09:23:59;20.70;38.00
7684;DHT22;3884;48.616;12.872;2023-05-07T09:26:33;21.10;27.80
7684;DHT22;3884;48.616;12.872;2023-05-07T09:29:01;21.00;1.00
7684;DHT22;3884;48.616;12.872;2023-05-07T09:31:29;20.80;1.00
7684;DHT22;3884;48.616;12.872;2023-05-07T09:33:56;21.00;1.00
7684;DHT22;3884;48.616;12.872;2023-05-07T09:36:28;20.70;9.10
7684;DHT22;3884;48.616;12.872;2023-05-07T09:38:59;20.70;1.00
7684;DHT22;3884;48.616;12.872;2023-05-07T09:41:28;20.50;1.00
7684;DHT22;3884;48.616;12.872;2023-05-07T09:44:14;21.00;1.00
7684;DHT22;3884;48.616;12.872;2023-05-07T09:46:47;21.20;1.00
7684;DHT22;3884;48.616;12.872;2023-05-07T09:49:23;21.30;1.00
7684;DHT22;3884;48.616;12.872;2023-05-07T09:52:00;21.00;1.00
7684;DHT22;3884;48.616;12.872;2023-05-07T09:54:29;20.90;1.00
7684;DHT22;3884;48.616;12.872;2023-05-07T09:57:01;21.10;1.00
7684;DHT22;3884;48.616;12.872;2023-05-07T09:59:31;21.40;1.00
7684;DHT22;3884;48.616;12.872;2023-05-07T10:02:01;21.20;1.00
7684;DHT22;3884;48.616;12.872;2023-05-07T10:04:31;21.20;1.00
7684;DHT22;3884;48.616;12.872;2023-05-07T10:07:00;21.60;1.00
7684;DHT22;3884;48.616;12.872;2023-05-07T10:09:30;21.50;1.00
7684;DHT22;3884;48.616;12.872;2023-05-07T10:11:58;21.90;1.00
7684;DHT22;3884;48.616;12.872;2023-05-07T10:14:28;21.90;1.00
7684;DHT22;3884;48.616;12.872;2023-05-07T10:16:56;22.00;1.00
7684;DHT22;3884;48.616;12.872;2023-05-07T10:19:24;22.00;1.00
7684;DHT22;3884;48.616;12.872;2023-05-07T10:21:55;22.10;1.00
7684;DHT22;3884;48.616;12.872;2023-05-07T10:24:28;22.10;1.00
7684;DHT22;3884;48.616;12.872;2023-05-07T10:26:59;21.90;1.00
7684;DHT22;3884;48.616;12.872;2023-05-07T10:29:35;22.10;1.00
7684;DHT22;3884;48.616;12.872;2023-05-07T10:32:19;22.10;1.00
7684;DHT22;3884;48.616;12.872;2023-05-07T10:34:55;22.20;1.00
7684;DHT22;3884;48.616;12.872;2023-05-07T10:37:22;22.20;1.00
7684;DHT22;3884;48.616;12.872;2023-05-07T10:39:52;22.00;1.00
7684;DHT22;3884;48.616;12.872;2023-05-07T10:42:20;21.90;1.00
7684;DHT22;3884;48.616;12.872;2023-05-07T10:44:51;21.60;1.00
7684;DHT22;3884;48.616;12.872;2023-05-07T10:47:24;21.90;1.00
7684;DHT22;3884;48.616;12.872;2023-05-07T10:50:20;22.10;1.00
7684;DHT22;3884;48.616;12.872;2023-05-07T10:53:22;22.20;1.00
7684;DHT22;3884;48.616;12.872;2023-05-07T10:56:25;22.10;1.00
7684;DHT22;3884;48.616;12.872;2023-05-07T10:59:35;21.60;1.00
7684;DHT22;3884;48.616;12.872;2023-05-07T11:02:20;22.00;1.00
7684;DHT22;3884;48.616;12.872;2023-05-07T11:05:19;22.00;1.00
7684;DHT22;3884;48.616;12.872;2023-05-07T11:07:54;21.90;1.00
7684;DHT22;3884;48.616;12.872;2023-05-07T11:10:22;21.70;1.00
7684;DHT22;3884;48.616;12.872;2023-05-07T11:12:59;21.60;1.00
7684;DHT22;3884;48.616;12.872;2023-05-07T11:15:46;21.70;1.00
7684;DHT22;3884;48.616;12.872;2023-05-07T11:18:22;22.10;1.00
7684;DHT22;3884;48.616;12.872;2023-05-07T11:20:56;22.30;1.00
7684;DHT22;3884;48.616;12.872;2023-05-07T11:23:59;22.50;1.00
7684;DHT22;3884;48.616;12.872;2023-05-07T11:26:45;22.30;1.00
7684;DHT22;3884;48.616;12.872;2023-05-07T11:29:16;22.30;1.00
7684;DHT22;3884;48.616;12.872;2023-05-07T11:31:43;22.20;1.00
7684;DHT22;3884;48.616;12.872;2023-05-07T11:34:12;22.30;1.00
7684;DHT22;3884;48.616;12.872;2023-05-07T11:36:43;22.10;99.90
7684;DHT22;3884;48.616;12.872;2023-05-07T11:39:30;22.20;99.90
7684;DHT22;3884;48.616;12.872;2023-05-07T11:41:59;22.60;1.00
7684;DHT22;3884;48.616;12.872;2023-05-07T11:44:41;22.50;1.00
7684;DHT22;3884;48.616;12.872;2023-05-07T11:47:09;22.00;1.00
7684;DHT22;3884;48.616;12.872;2023-05-07T11:49:36;22.20;99.90
7684;DHT22;3884;48.616;12.872;2023-05-07T11:52:03;22.20;99.90
7684;DHT22;3884;48.616;12.872;2023-05-07T11:54:35;22.40;99.90
7684;DHT22;3884;48.616;12.872;2023-05-07T11:57:03;22.30;99.90
7684;DHT22;3884;48.616;12.872;2023-05-07T11:59:38;22.40;99.90
7684;DHT22;3884;48.616;12.872;2023-05-07T12:02:07;22.50;1.00
7684;DHT22;3884;48.616;12.872;2023-05-07T12:04:34;22.80;99.90
7684;DHT22;3884;48.616;12.872;2023-05-07T12:07:01;22.80;99.90
7684;DHT22;3884;48.616;12.872;2023-05-07T12:09:28;23.00;99.90
7684;DHT22;3884;48.616;12.872;2023-05-07T12:11:55;23.10;99.90
7684;DHT22;3884;48.616;12.872;2023-05-07T12:14:26;23.00;99.90
7684;DHT22;3884;48.616;12.872;2023-05-07T12:16:53;22.80;99.90
7684;DHT22;3884;48.616;12.872;2023-05-07T12:19:22;23.00;99.90
7684;DHT22;3884;48.616;12.872;2023-05-07T12:21:49;23.00;99.90
7684;DHT22;3884;48.616;12.872;2023-05-07T12:24:16;22.90;99.90
7684;DHT22;3884;48.616;12.872;2023-05-07T12:26:43;22.80;99.90
7684;DHT22;3884;48.616;12.872;2023-05-07T12:29:10;23.00;99.90
7684;DHT22;3884;48.616;12.872;2023-05-07T12:31:40;23.10;99.90
7684;DHT22;3884;48.616;12.872;2023-05-07T12:34:07;23.10;99.90
7684;DHT22;3884;48.616;12.872;2023-05-07T12:36:39;23.10;99.90
7684;DHT22;3884;48.616;12.872;2023-05-07T12:39:06;23.40;99.90
7684;DHT22;3884;48.616;12.872;2023-05-07T12:41:36;23.40;99.90
7684;DHT22;3884;48.616;12.872;2023-05-07T12:44:18;23.60;99.90
7684;DHT22;3884;48.616;12.872;2023-05-07T12:46:46;23.70;99.90
7684;DHT22;3884;48.616;12.872;2023-05-07T12:49:13;23.80;99.90
7684;DHT22;3884;48.616;12.872;2023-05-07T12:51:41;24.00;99.90
7684;DHT22;3884;48.616;12.872;2023-05-07T12:54:08;24.20;99.90
7684;DHT22;3884;48.616;12.872;2023-05-07T12:56:36;23.90;99.90
7684;DHT22;3884;48.616;12.872;2023-05-07T12:59:02;23.80;99.90
7684;DHT22;3884;48.616;12.872;2023-05-07T13:01:30;24.20;99.90
7684;DHT22;3884;48.616;12.872;2023-05-07T13:04:00;23.80;99.90
7684;DHT22;3884;48.616;12.872;2023-05-07T13:06:27;24.00;99.90
7684;DHT22;3884;48.616;12.872;2023-05-07T13:08:55;24.00;99.90
7684;DHT22;3884;48.616;12.872;2023-05-07T13:11:22;24.50;99.90
7684;DHT22;3884;48.616;12.872;2023-05-07T13:13:49;24.60;99.90
7684;DHT22;3884;48.616;12.872;2023-05-07T13:16:17;24.90;99.90
7684;DHT22;3884;48.616;12.872;2023-05-07T13:18:44;24.90;99.90
7684;DHT22;3884;48.616;12.872;2023-05-07T13:21:11;24.70;99.90
7684;DHT22;3884;48.616;12.872;2023-05-07T13:23:39;23.50;99.90
7684;DHT22;3884;48.616;12.872;2023-05-07T13:26:08;22.60;99.90
7684;DHT22;3884;48.616;12.872;2023-05-07T13:28:35;22.50;99.90
7684;DHT22;3884;48.616;12.872;2023-05-07T13:31:02;22.30;99.90
7684;DHT22;3884;48.616;12.872;2023-05-07T13:33:29;21.80;99.90
7684;DHT22;3884;48.616;12.872;2023-05-07T13:35:56;21.60;99.90
7684;DHT22;3884;48.616;12.872;2023-05-07T13:38:23;21.50;99.90
7684;DHT22;3884;48.616;12.872;2023-05-07T13:40:50;21.50;99.90
7684;DHT22;3884;48.616;12.872;2023-05-07T13:43:19;21.80;99.90
7684;DHT22;3884;48.616;12.872;2023-05-07T13:45:46;22.40;99.90
7684;DHT22;3884;48.616;12.872;2023-05-07T13:48:13;22.10;99.90
7684;DHT22;3884;48.616;12.872;2023-05-07T13:50:39;21.60;99.90
7684;DHT22;3884;48.616;12.872;2023-05-07T13:53:07;21.60;99.90
7684;DHT22;3884;48.616;12.872;2023-05-07T13:55:34;21.70;99.90
7684;DHT22;3884;48.616;12.872;2023-05-07T13:58:02;21.70;99.90
7684;DHT22;3884;48.616;12.872;2023-05-07T14:00:30;21.60;99.90
7684;DHT22;3884;48.616;12.872;2023-05-07T14:02:57;21.80;99.90
7684;DHT22;3884;48.616;12.872;2023-05-07T14:05:24;22.00;99.90
7684;DHT22;3884;48.616;12.872;2023-05-07T14:07:53;21.90;99.90
7684;DHT22;3884;48.616;12.872;2023-05-07T14:10:20;22.10;99.90
7684;DHT22;3884;48.616;12.872;2023-05-07T14:12:47;21.90;99.90
7684;DHT22;3884;48.616;12.872;2023-05-07T14:15:14;21.90;99.90
7684;DHT22;3884;48.616;12.872;2023-05-07T14:17:43;21.90;99.90
7684;DHT22;3884;48.616;12.872;2023-05-07T14:20:11;21.80;99.90
7684;DHT22;3884;48.616;12.872;2023-05-07T14:22:38;21.60;99.90
7684;DHT22;3884;48.616;12.872;2023-05-07T14:25:06;21.50;99.90
7684;DHT22;3884;48.616;12.872;2023-05-07T14:27:33;21.60;99.90
7684;DHT22;3884;48.616;12.872;2023-05-07T14:30:00;21.50;99.90
7684;DHT22;3884;48.616;12.872;2023-05-07T14:32:27;21.30;99.90
7684;DHT22;3884;48.616;12.872;2023-05-07T14:34:55;21.30;99.90
7684;DHT22;3884;48.616;12.872;2023-05-07T14:37:22;21.40;99.90
7684;DHT22;3884;48.616;12.872;2023-05-07T14:39:49;21.40;99.90
7684;DHT22;3884;48.616;12.872;2023-05-07T14:42:16;21.40;1.00
7684;DHT22;3884;48.616;12.872;2023-05-07T14:44:44;21.40;99.90
7684;DHT22;3884;48.616;12.872;2023-05-07T14:47:12;21.30;99.90
7684;DHT22;3884;48.616;12.872;2023-05-07T14:49:39;21.30;99.90
7684;DHT22;3884;48.616;12.872;2023-05-07T14:52:08;21.30;99.90
7684;DHT22;3884;48.616;12.872;2023-05-07T14:54:36;21.50;99.90
7684;DHT22;3884;48.616;12.872;2023-05-07T14:57:05;21.80;99.90
7684;DHT22;3884;48.616;12.872;2023-05-07T14:59:32;21.60;99.90
7684;DHT22;3884;48.616;12.872;2023-05-07T15:01:59;21.40;99.90
7684;DHT22;3884;48.616;12.872;2023-05-07T15:04:26;21.60;99.90
7684;DHT22;3884;48.616;12.872;2023-05-07T15:06:53;21.80;99.90
7684;DHT22;3884;48.616;12.872;2023-05-07T15:09:23;21.90;99.90
7684;DHT22;3884;48.616;12.872;2023-05-07T15:11:49;21.90;99.90
7684;DHT22;3884;48.616;12.872;2023-05-07T15:14:16;21.90;1.00
7684;DHT22;3884;48.616;12.872;2023-05-07T15:16:43;21.20;99.90
7684;DHT22;3884;48.616;12.872;2023-05-07T15:19:11;20.90;99.90
7684;DHT22;3884;48.616;12.872;2023-05-07T15:21:37;20.50;1.00
7684;DHT22;3884;48.616;12.872;2023-05-07T15:24:05;20.40;1.00
7684;DHT22;3884;48.616;12.872;2023-05-07T15:26:34;20.20;1.00
7684;DHT22;3884;48.616;12.872;2023-05-07T15:29:00;20.20;1.00
7684;DHT22;3884;48.616;12.872;2023-05-07T15:31:28;20.20;1.00
7684;DHT22;3884;48.616;12.872;2023-05-07T15:33:55;20.10;1.00
7684;DHT22;3884;48.616;12.872;2023-05-07T15:36:22;20.00;1.00
7684;DHT22;3884;48.616;12.872;2023-05-07T15:38:49;20.00;1.00
7684;DHT22;3884;48.616;12.872;2023-05-07T15:41:16;19.90;1.00
7684;DHT22;3884;48.616;12.872;2023-05-07T15:43:47;20.00;1.00
7684;DHT22;3884;48.616;12.872;2023-05-07T15:46:17;20.10;1.00
7684;DHT22;3884;48.616;12.872;2023-05-07T15:48:45;20.20;1.00
7684;DHT22;3884;48.616;12.872;2023-05-07T15:51:12;20.20;1.00
7684;DHT22;3884;48.616;12.872;2023-05-07T15:53:39;20.10;1.00
7684;DHT22;3884;48.616;12.872;2023-05-07T15:56:06;19.90;1.00
7684;DHT22;3884;48.616;12.872;2023-05-07T15:58:33;19.80;1.00
7684;DHT22;3884;48.616;12.872;2023-05-07T16:01:02;19.70;1.00
7684;DHT22;3884;48.616;12.872;2023-05-07T16:03:30;19.60;1.00
7684;DHT22;3884;48.616;12.872;2023-05-07T16:05:57;19.50;1.00